sensor_id;sensor_type;location;lat;lon;timestamp;pressure;altitude;pressure_sealevel;temperature;humidity
73105;BME280;61296;50.526;30.792;2023-11-21T00:05:45;99083.94;;;-3.39;97.37
73105;BME280;61296;50.526;30.792;2023-11-21T00:21:05;99078.69;;;-3.63;97.31
73105;BME280;61296;50.526;30.792;2023-11-21T00:36:24;99074.31;;;-3.78;98.56
73105;BME280;61296;50.526;30.792;2023-11-21T00:51:44;99076.59;;;-4.04;99.13
73105;BME280;61296;50.526;30.792;2023-11-21T01:07:04;99066.84;;;-4.38;99.85
73105;BME280;61296;50.526;30.792;2023-11-21T01:22:24;99085.66;;;-4.19;100.00
73105;BME280;61296;50.526;30.792;2023-11-21T01:37:46;99083.75;;;-4.18;100.00
73105;BME280;61296;50.526;30.792;2023-11-21T01:53:07;99106.56;;;-3.97;100.00
73105;BME280;61296;50.526;30.792;2023-11-21T02:08:26;99095.16;;;-4.26;100.00
73105;BME280;61296;50.526;30.792;2023-11-21T02:23:45;99128.09;;;-4.21;100.00
73105;BME280;61296;50.526;30.792;2023-11-21T02:39:05;99140.44;;;-4.20;100.00
73105;BME280;61296;50.526;30.792;2023-11-21T02:54:26;99145.88;;;-4.25;100.00
73105;BME280;61296;50.526;30.792;2023-11-21T03:09:46;99159.75;;;-4.18;100.00
73105;BME280;61296;50.526;30.792;2023-11-21T03:25:07;99166.19;;;-4.19;100.00
73105;BME280;61296;50.526;30.792;2023-11-21T03:40:29;99162.72;;;-4.19;100.00
73105;BME280;61296;50.526;30.792;2023-11-21T03:55:51;99185.66;;;-4.27;100.00
73105;BME280;61296;50.526;30.792;2023-11-21T04:11:10;99166.44;;;-4.39;100.00
73105;BME280;61296;50.526;30.792;2023-11-21T04:26:30;99188.31;;;-4.51;100.00
73105;BME280;61296;50.526;30.792;2023-11-21T04:41:50;99189.38;;;-4.76;100.00
73105;BME280;61296;50.526;30.792;2023-11-21T04:57:09;99222.59;;;-4.72;100.00
73105;BME280;61296;50.526;30.792;2023-11-21T05:12:31;99236.06;;;-4.77;100.00
73105;BME280;61296;50.526;30.792;2023-11-21T05:27:56;99242.50;;;-4.78;100.00
73105;BME280;61296;50.526;30.792;2023-11-21T05:43:18;99277.03;;;-4.66;100.00
73105;BME280;61296;50.526;30.792;2023-11-21T05:58:40;99267.13;;;-4.42;100.00
73105;BME280;61296;50.526;30.792;2023-11-21T06:13:59;99287.03;;;-4.19;100.00
73105;BME280;61296;50.526;30.792;2023-11-21T06:29:19;99287.34;;;-3.96;100.00
73105;BME280;61296;50.526;30.792;2023-11-21T06:44:38;99262.09;;;-3.95;100.00
73105;BME280;61296;50.526;30.792;2023-11-21T06:59:58;99318.69;;;-3.63;100.00
73105;BME280;61296;50.526;30.792;2023-11-21T07:15:18;99320.50;;;-3.82;100.00
73105;BME280;61296;50.526;30.792;2023-11-21T07:30:38;99319.53;;;-3.67;100.00
73105;BME280;61296;50.526;30.792;2023-11-21T07:45:57;99308.56;;;-2.91;100.00
73105;BME280;61296;50.526;30.792;2023-11-21T08:01:17;99327.69;;;-2.92;100.00
73105;BME280;61296;50.526;30.792;2023-11-21T08:16:36;99342.22;;;-2.55;100.00
73105;BME280;61296;50.526;30.792;2023-11-21T08:31:56;99345.13;;;-2.52;100.00
73105;BME280;61296;50.526;30.792;2023-11-21T08:47:16;99354.34;;;-2.07;99.16
73105;BME280;61296;50.526;30.792;2023-11-21T09:02:35;99346.00;;;-1.78;94.97
73105;BME280;61296;50.526;30.792;2023-11-21T09:17:56;99339.03;;;-1.51;91.85
73105;BME280;61296;50.526;30.792;2023-11-21T09:33:15;99344.00;;;-1.31;88.79
73105;BME280;61296;50.526;30.792;2023-11-21T09:48:36;99339.81;;;-1.23;88.42
73105;BME280;61296;50.526;30.792;2023-11-21T10:03:58;99319.59;;;-1.12;88.30
73105;BME280;61296;50.526;30.792;2023-11-21T10:19:19;99325.38;;;-1.05;86.48
73105;BME280;61296;50.526;30.792;2023-11-21T10:34:40;99218.63;;;-1.97;87.02
73105;BME280;61296;50.526;30.792;2023-11-21T10:50:00;99357.38;;;-1.26;87.00
73105;BME280;61296;50.526;30.792;2023-11-21T11:05:22;99354.19;;;-1.41;86.73
73105;BME280;61296;50.526;30.792;2023-11-21T11:37:33;99331.59;;;-2.00;89.39
73105;BME280;61296;50.526;30.792;2023-11-21T11:52:53;99359.38;;;-1.72;88.91
73105;BME280;61296;50.526;30.792;2023-11-21T12:08:28;99358.47;;;-1.82;89.21
73105;BME280;61296;50.526;30.792;2023-11-21T12:24:04;99387.34;;;-1.68;89.40
73105;BME280;61296;50.526;30.792;2023-11-21T12:39:40;99413.44;;;-1.50;87.87
73105;BME280;61296;50.526;30.792;2023-11-21T12:55:23;99420.16;;;-1.34;88.08
73105;BME280;61296;50.526;30.792;2023-11-21T13:10:56;99397.19;;;-1.91;90.01
73105;BME280;61296;50.526;30.792;2023-11-21T13:26:31;99405.53;;;-1.60;89.46
73105;BME280;61296;50.526;30.792;2023-11-21T13:42:06;99437.88;;;-1.60;90.58
73105;BME280;61296;50.526;30.792;2023-11-21T13:57:39;99424.78;;;-1.67;89.72
73105;BME280;61296;50.526;30.792;2023-11-21T14:13:13;99428.56;;;-1.82;90.16
73105;BME280;61296;50.526;30.792;2023-11-21T14:28:46;99402.53;;;-1.72;90.20
73105;BME280;61296;50.526;30.792;2023-11-21T14:44:22;99398.28;;;-1.92;91.20
73105;BME280;61296;50.526;30.792;2023-11-21T14:59:58;99456.06;;;-1.66;91.00
73105;BME280;61296;50.526;30.792;2023-11-21T15:15:31;99425.69;;;-1.71;91.03
73105;BME280;61296;50.526;30.792;2023-11-21T15:31:07;99464.97;;;-1.65;91.35
73105;BME280;61296;50.526;30.792;2023-11-21T15:46:41;99454.28;;;-1.89;92.51
73105;BME280;61296;50.526;30.792;2023-11-21T16:02:15;99456.44;;;-2.05;93.39
73105;BME280;61296;50.526;30.792;2023-11-21T16:17:57;99473.88;;;-1.84;93.02
73105;BME280;61296;50.526;30.792;2023-11-21T16:33:31;99470.00;;;-1.78;91.23
73105;BME280;61296;50.526;30.792;2023-11-21T16:49:03;99475.81;;;-1.70;90.96
73105;BME280;61296;50.526;30.792;2023-11-21T17:04:37;99488.19;;;-1.69;90.92
73105;BME280;61296;50.526;30.792;2023-11-21T17:20:13;99429.31;;;-2.27;91.93
73105;BME280;61296;50.526;30.792;2023-11-21T17:35:48;99533.91;;;-1.78;93.18
73105;BME280;61296;50.526;30.792;2023-11-21T17:51:21;99512.59;;;-1.93;93.74
73105;BME280;61296;50.526;30.792;2023-11-21T18:06:55;99538.09;;;-1.86;93.97
73105;BME280;61296;50.526;30.792;2023-11-21T18:22:32;99538.66;;;-1.89;94.35
73105;BME280;61296;50.526;30.792;2023-11-21T18:38:05;99517.09;;;-1.89;93.85
73105;BME280;61296;50.526;30.792;2023-11-21T18:53:39;99546.66;;;-1.84;94.62
73105;BME280;61296;50.526;30.792;2023-11-21T19:09:13;99500.16;;;-2.08;95.29
73105;BME280;61296;50.526;30.792;2023-11-21T19:24:47;99548.41;;;-1.74;94.43
73105;BME280;61296;50.526;30.792;2023-11-21T19:40:20;99556.66;;;-1.84;95.36
73105;BME280;61296;50.526;30.792;2023-11-21T19:55:55;99558.31;;;-1.69;95.62
73105;BME280;61296;50.526;30.792;2023-11-21T20:11:28;99597.34;;;-1.48;94.82
73105;BME280;61296;50.526;30.792;2023-11-21T20:27:06;99583.59;;;-1.65;95.20
73105;BME280;61296;50.526;30.792;2023-11-21T20:42:39;99547.91;;;-1.95;94.60
73105;BME280;61296;50.526;30.792;2023-11-21T20:58:16;99536.63;;;-1.97;95.68
73105;BME280;61296;50.526;30.792;2023-11-21T21:13:48;99578.22;;;-1.84;95.26
73105;BME280;61296;50.526;30.792;2023-11-21T21:29:25;99599.50;;;-1.64;93.84
73105;BME280;61296;50.526;30.792;2023-11-21T21:44:58;99600.78;;;-1.61;93.66
73105;BME280;61296;50.526;30.792;2023-11-21T22:00:32;99602.25;;;-1.69;94.74
73105;BME280;61296;50.526;30.792;2023-11-21T22:16:04;99577.03;;;-1.78;95.54
73105;BME280;61296;50.526;30.792;2023-11-21T22:31:43;99600.88;;;-1.66;95.97
73105;BME280;61296;50.526;30.792;2023-11-21T22:47:13;99587.97;;;-1.69;97.68
73105;BME280;61296;50.526;30.792;2023-11-21T23:02:47;99611.06;;;-1.63;97.78
73105;BME280;61296;50.526;30.792;2023-11-21T23:18:19;99615.56;;;-1.59;97.61
73105;BME280;61296;50.526;30.792;2023-11-21T23:34:00;99612.03;;;-1.73;96.72
73105;BME280;61296;50.526;30.792;2023-11-21T23:49:33;99620.16;;;-1.78;96.32
